sensor_id;sensor_type;location;lat;lon;timestamp;P1;durP1;ratioP1;P2;durP2;ratioP2
11893;SDS011;6006;49.696;8.662;2023-08-20T00:01:35;7.32;;;5.38;;
11893;SDS011;6006;49.696;8.662;2023-08-20T00:04:02;6.68;;;5.90;;
11893;SDS011;6006;49.696;8.662;2023-08-20T00:06:30;8.38;;;5.63;;
11893;SDS011;6006;49.696;8.662;2023-08-20T00:08:57;6.32;;;5.53;;
11893;SDS011;6006;49.696;8.662;2023-08-20T00:11:26;6.75;;;6.05;;
11893;SDS011;6006;49.696;8.662;2023-08-20T00:13:53;8.25;;;5.82;;
11893;SDS011;6006;49.696;8.662;2023-08-20T00:16:20;8.07;;;6.05;;
11893;SDS011;6006;49.696;8.662;2023-08-20T00:18:47;6.57;;;5.57;;
11893;SDS011;6006;49.696;8.662;2023-08-20T00:21:15;7.93;;;5.93;;
11893;SDS011;6006;49.696;8.662;2023-08-20T00:23:42;8.05;;;5.80;;
11893;SDS011;6006;49.696;8.662;2023-08-20T00:26:09;8.18;;;6.20;;
11893;SDS011;6006;49.696;8.662;2023-08-20T00:28:38;6.43;;;5.80;;
11893;SDS011;6006;49.696;8.662;2023-08-20T00:31:05;5.68;;;4.97;;
11893;SDS011;6006;49.696;8.662;2023-08-20T00:33:32;7.28;;;6.45;;
11893;SDS011;6006;49.696;8.662;2023-08-20T00:35:59;7.32;;;6.38;;
11893;SDS011;6006;49.696;8.662;2023-08-20T00:38:26;7.88;;;6.10;;
11893;SDS011;6006;49.696;8.662;2023-08-20T00:40:53;7.55;;;6.25;;
11893;SDS011;6006;49.696;8.662;2023-08-20T00:43:19;7.70;;;6.47;;
11893;SDS011;6006;49.696;8.662;2023-08-20T00:45:48;6.85;;;5.75;;
11893;SDS011;6006;49.696;8.662;2023-08-20T00:48:15;7.20;;;6.50;;
11893;SDS011;6006;49.696;8.662;2023-08-20T00:50:42;7.07;;;6.05;;
11893;SDS011;6006;49.696;8.662;2023-08-20T00:53:10;6.50;;;5.88;;
11893;SDS011;6006;49.696;8.662;2023-08-20T00:55:38;8.65;;;5.68;;
11893;SDS011;6006;49.696;8.662;2023-08-20T00:58:05;6.35;;;5.30;;
11893;SDS011;6006;49.696;8.662;2023-08-20T01:00:32;7.72;;;5.78;;
11893;SDS011;6006;49.696;8.662;2023-08-20T01:03:00;6.28;;;5.22;;
11893;SDS011;6006;49.696;8.662;2023-08-20T01:05:27;5.50;;;5.00;;
11893;SDS011;6006;49.696;8.662;2023-08-20T01:08:03;8.07;;;6.10;;
11893;SDS011;6006;49.696;8.662;2023-08-20T01:10:42;6.63;;;5.97;;
11893;SDS011;6006;49.696;8.662;2023-08-20T01:13:16;8.48;;;5.57;;
11893;SDS011;6006;49.696;8.662;2023-08-20T01:15:44;8.07;;;5.90;;
11893;SDS011;6006;49.696;8.662;2023-08-20T01:18:12;5.95;;;5.28;;
11893;SDS011;6006;49.696;8.662;2023-08-20T01:20:39;7.60;;;5.82;;
11893;SDS011;6006;49.696;8.662;2023-08-20T01:26:35;10.48;;;5.60;;
11893;SDS011;6006;49.696;8.662;2023-08-20T01:29:16;7.55;;;6.22;;
11893;SDS011;6006;49.696;8.662;2023-08-20T01:31:43;6.55;;;5.35;;
11893;SDS011;6006;49.696;8.662;2023-08-20T01:34:11;6.45;;;5.82;;
11893;SDS011;6006;49.696;8.662;2023-08-20T01:36:39;9.48;;;6.45;;
11893;SDS011;6006;49.696;8.662;2023-08-20T01:39:06;5.90;;;5.40;;
11893;SDS011;6006;49.696;8.662;2023-08-20T01:41:33;6.93;;;6.00;;
11893;SDS011;6006;49.696;8.662;2023-08-20T01:44:00;7.68;;;5.90;;
11893;SDS011;6006;49.696;8.662;2023-08-20T01:46:28;7.78;;;6.15;;
11893;SDS011;6006;49.696;8.662;2023-08-20T01:48:55;7.95;;;5.75;;
11893;SDS011;6006;49.696;8.662;2023-08-20T01:51:22;6.93;;;6.32;;
11893;SDS011;6006;49.696;8.662;2023-08-20T01:53:49;6.60;;;5.90;;
11893;SDS011;6006;49.696;8.662;2023-08-20T01:56:16;6.82;;;5.72;;
11893;SDS011;6006;49.696;8.662;2023-08-20T01:58:43;6.63;;;5.82;;
11893;SDS011;6006;49.696;8.662;2023-08-20T02:01:10;6.75;;;6.05;;
11893;SDS011;6006;49.696;8.662;2023-08-20T02:03:38;6.93;;;6.22;;
11893;SDS011;6006;49.696;8.662;2023-08-20T02:06:05;9.40;;;6.72;;
11893;SDS011;6006;49.696;8.662;2023-08-20T02:08:32;8.43;;;6.57;;
11893;SDS011;6006;49.696;8.662;2023-08-20T02:10:59;8.60;;;6.93;;
11893;SDS011;6006;49.696;8.662;2023-08-20T02:13:27;8.38;;;6.10;;
11893;SDS011;6006;49.696;8.662;2023-08-20T02:15:58;6.45;;;5.82;;
11893;SDS011;6006;49.696;8.662;2023-08-20T02:18:25;10.02;;;6.32;;
11893;SDS011;6006;49.696;8.662;2023-08-20T02:20:53;6.90;;;6.22;;
11893;SDS011;6006;49.696;8.662;2023-08-20T02:23:24;8.00;;;6.68;;
11893;SDS011;6006;49.696;8.662;2023-08-20T02:25:51;7.57;;;6.40;;
11893;SDS011;6006;49.696;8.662;2023-08-20T02:28:18;6.47;;;5.88;;
11893;SDS011;6006;49.696;8.662;2023-08-20T02:30:45;6.80;;;6.20;;
11893;SDS011;6006;49.696;8.662;2023-08-20T02:33:13;7.10;;;6.03;;
11893;SDS011;6006;49.696;8.662;2023-08-20T02:35:40;7.78;;;6.07;;
11893;SDS011;6006;49.696;8.662;2023-08-20T02:38:08;7.25;;;6.40;;
11893;SDS011;6006;49.696;8.662;2023-08-20T02:40:39;8.60;;;6.65;;
11893;SDS011;6006;49.696;8.662;2023-08-20T02:43:06;9.30;;;7.30;;
11893;SDS011;6006;49.696;8.662;2023-08-20T02:45:33;7.65;;;6.88;;
11893;SDS011;6006;49.696;8.662;2023-08-20T02:48:07;7.45;;;6.72;;
11893;SDS011;6006;49.696;8.662;2023-08-20T02:50:34;6.10;;;5.50;;
11893;SDS011;6006;49.696;8.662;2023-08-20T02:53:00;7.70;;;6.88;;
11893;SDS011;6006;49.696;8.662;2023-08-20T02:55:29;7.32;;;6.63;;
11893;SDS011;6006;49.696;8.662;2023-08-20T02:57:57;8.05;;;6.97;;
11893;SDS011;6006;49.696;8.662;2023-08-20T03:00:24;7.18;;;6.25;;
11893;SDS011;6006;49.696;8.662;2023-08-20T03:02:51;7.07;;;6.35;;
11893;SDS011;6006;49.696;8.662;2023-08-20T03:05:18;7.80;;;6.68;;
11893;SDS011;6006;49.696;8.662;2023-08-20T03:07:45;8.18;;;6.78;;
11893;SDS011;6006;49.696;8.662;2023-08-20T03:10:12;7.45;;;6.70;;
11893;SDS011;6006;49.696;8.662;2023-08-20T03:12:40;7.70;;;6.47;;
11893;SDS011;6006;49.696;8.662;2023-08-20T03:15:07;6.55;;;5.80;;
11893;SDS011;6006;49.696;8.662;2023-08-20T03:17:34;7.15;;;6.45;;
11893;SDS011;6006;49.696;8.662;2023-08-20T03:20:02;6.25;;;5.65;;
11893;SDS011;6006;49.696;8.662;2023-08-20T03:22:31;6.80;;;6.13;;
11893;SDS011;6006;49.696;8.662;2023-08-20T03:24:58;6.60;;;6.03;;
11893;SDS011;6006;49.696;8.662;2023-08-20T03:27:25;7.05;;;6.35;;
11893;SDS011;6006;49.696;8.662;2023-08-20T03:29:54;6.45;;;5.55;;
11893;SDS011;6006;49.696;8.662;2023-08-20T03:32:21;6.25;;;5.60;;
11893;SDS011;6006;49.696;8.662;2023-08-20T03:34:48;7.15;;;6.30;;
11893;SDS011;6006;49.696;8.662;2023-08-20T03:37:14;5.85;;;5.32;;
11893;SDS011;6006;49.696;8.662;2023-08-20T03:39:41;8.63;;;5.93;;
11893;SDS011;6006;49.696;8.662;2023-08-20T03:42:08;6.80;;;6.13;;
11893;SDS011;6006;49.696;8.662;2023-08-20T03:44:35;6.90;;;6.22;;
11893;SDS011;6006;49.696;8.662;2023-08-20T03:47:04;7.28;;;5.93;;
11893;SDS011;6006;49.696;8.662;2023-08-20T03:49:31;6.43;;;5.82;;
11893;SDS011;6006;49.696;8.662;2023-08-20T03:51:58;7.80;;;7.10;;
11893;SDS011;6006;49.696;8.662;2023-08-20T03:54:26;8.02;;;6.28;;
11893;SDS011;6006;49.696;8.662;2023-08-20T03:56:53;7.63;;;6.05;;
11893;SDS011;6006;49.696;8.662;2023-08-20T03:59:20;6.22;;;5.72;;
11893;SDS011;6006;49.696;8.662;2023-08-20T04:01:47;7.28;;;6.10;;
11893;SDS011;6006;49.696;8.662;2023-08-20T04:04:16;6.40;;;5.30;;
11893;SDS011;6006;49.696;8.662;2023-08-20T04:06:43;10.13;;;7.03;;
11893;SDS011;6006;49.696;8.662;2023-08-20T04:09:10;6.93;;;6.25;;
11893;SDS011;6006;49.696;8.662;2023-08-20T04:11:37;9.15;;;7.10;;
11893;SDS011;6006;49.696;8.662;2023-08-20T04:14:04;6.32;;;5.72;;
11893;SDS011;6006;49.696;8.662;2023-08-20T04:16:30;7.53;;;6.70;;
11893;SDS011;6006;49.696;8.662;2023-08-20T04:18:57;6.95;;;6.28;;
11893;SDS011;6006;49.696;8.662;2023-08-20T04:21:26;5.55;;;5.05;;
11893;SDS011;6006;49.696;8.662;2023-08-20T04:23:54;7.28;;;6.55;;
11893;SDS011;6006;49.696;8.662;2023-08-20T04:26:21;7.45;;;6.65;;
11893;SDS011;6006;49.696;8.662;2023-08-20T04:28:47;6.95;;;6.13;;
11893;SDS011;6006;49.696;8.662;2023-08-20T04:31:14;7.03;;;6.32;;
11893;SDS011;6006;49.696;8.662;2023-08-20T04:33:41;7.15;;;6.07;;
11893;SDS011;6006;49.696;8.662;2023-08-20T04:36:08;6.95;;;6.35;;
11893;SDS011;6006;49.696;8.662;2023-08-20T04:38:36;7.65;;;6.72;;
11893;SDS011;6006;49.696;8.662;2023-08-20T04:41:03;7.03;;;6.30;;
11893;SDS011;6006;49.696;8.662;2023-08-20T04:43:30;7.63;;;6.30;;
11893;SDS011;6006;49.696;8.662;2023-08-20T04:45:57;7.05;;;6.35;;
11893;SDS011;6006;49.696;8.662;2023-08-20T04:48:24;8.75;;;7.07;;
11893;SDS011;6006;49.696;8.662;2023-08-20T04:50:51;8.57;;;7.18;;
11893;SDS011;6006;49.696;8.662;2023-08-20T04:53:18;7.05;;;6.35;;
11893;SDS011;6006;49.696;8.662;2023-08-20T04:55:46;8.60;;;6.57;;
11893;SDS011;6006;49.696;8.662;2023-08-20T04:58:13;7.22;;;6.25;;
11893;SDS011;6006;49.696;8.662;2023-08-20T05:00:40;6.40;;;5.85;;
11893;SDS011;6006;49.696;8.662;2023-08-20T05:03:06;8.40;;;6.78;;
11893;SDS011;6006;49.696;8.662;2023-08-20T05:05:33;7.72;;;6.07;;
11893;SDS011;6006;49.696;8.662;2023-08-20T05:08:00;8.02;;;5.97;;
11893;SDS011;6006;49.696;8.662;2023-08-20T05:10:27;7.47;;;6.78;;
11893;SDS011;6006;49.696;8.662;2023-08-20T05:12:56;8.50;;;7.55;;
11893;SDS011;6006;49.696;8.662;2023-08-20T05:15:22;10.57;;;6.57;;
11893;SDS011;6006;49.696;8.662;2023-08-20T05:17:49;8.05;;;7.13;;
11893;SDS011;6006;49.696;8.662;2023-08-20T05:20:16;8.05;;;6.93;;
11893;SDS011;6006;49.696;8.662;2023-08-20T05:22:43;10.38;;;7.32;;
11893;SDS011;6006;49.696;8.662;2023-08-20T05:25:10;8.05;;;7.25;;
11893;SDS011;6006;49.696;8.662;2023-08-20T05:27:37;9.57;;;6.82;;
11893;SDS011;6006;49.696;8.662;2023-08-20T05:30:06;8.60;;;7.65;;
11893;SDS011;6006;49.696;8.662;2023-08-20T05:32:34;10.90;;;7.65;;
11893;SDS011;6006;49.696;8.662;2023-08-20T05:35:01;7.95;;;7.15;;
11893;SDS011;6006;49.696;8.662;2023-08-20T05:37:29;8.93;;;7.90;;
11893;SDS011;6006;49.696;8.662;2023-08-20T05:39:56;8.85;;;7.57;;
11893;SDS011;6006;49.696;8.662;2023-08-20T05:42:23;10.30;;;7.43;;
11893;SDS011;6006;49.696;8.662;2023-08-20T05:44:50;7.15;;;6.35;;
11893;SDS011;6006;49.696;8.662;2023-08-20T05:47:18;8.63;;;5.85;;
11893;SDS011;6006;49.696;8.662;2023-08-20T05:49:45;7.95;;;6.22;;
11893;SDS011;6006;49.696;8.662;2023-08-20T05:52:12;6.15;;;5.55;;
11893;SDS011;6006;49.696;8.662;2023-08-20T05:54:39;6.40;;;5.80;;
11893;SDS011;6006;49.696;8.662;2023-08-20T05:57:05;6.65;;;5.85;;
11893;SDS011;6006;49.696;8.662;2023-08-20T05:59:32;5.70;;;5.10;;
11893;SDS011;6006;49.696;8.662;2023-08-20T06:02:00;6.05;;;5.43;;
11893;SDS011;6006;49.696;8.662;2023-08-20T06:04:29;5.78;;;4.93;;
11893;SDS011;6006;49.696;8.662;2023-08-20T06:06:56;6.20;;;5.70;;
11893;SDS011;6006;49.696;8.662;2023-08-20T06:09:23;12.98;;;6.20;;
11893;SDS011;6006;49.696;8.662;2023-08-20T06:11:50;6.60;;;6.00;;
11893;SDS011;6006;49.696;8.662;2023-08-20T06:14:17;6.25;;;5.50;;
11893;SDS011;6006;49.696;8.662;2023-08-20T06:16:44;7.47;;;5.68;;
11893;SDS011;6006;49.696;8.662;2023-08-20T06:19:11;6.18;;;5.65;;
11893;SDS011;6006;49.696;8.662;2023-08-20T06:21:39;7.47;;;6.03;;
11893;SDS011;6006;49.696;8.662;2023-08-20T06:24:06;6.10;;;5.60;;
11893;SDS011;6006;49.696;8.662;2023-08-20T06:26:34;6.50;;;5.05;;
11893;SDS011;6006;49.696;8.662;2023-08-20T06:29:00;6.15;;;4.72;;
11893;SDS011;6006;49.696;8.662;2023-08-20T06:31:27;5.43;;;4.90;;
11893;SDS011;6006;49.696;8.662;2023-08-20T06:33:54;5.90;;;5.20;;
11893;SDS011;6006;49.696;8.662;2023-08-20T06:36:21;4.50;;;4.00;;
11893;SDS011;6006;49.696;8.662;2023-08-20T06:38:50;5.78;;;4.70;;
11893;SDS011;6006;49.696;8.662;2023-08-20T06:41:17;4.63;;;4.22;;
11893;SDS011;6006;49.696;8.662;2023-08-20T06:43:44;6.60;;;4.75;;
11893;SDS011;6006;49.696;8.662;2023-08-20T06:46:11;4.70;;;4.30;;
11893;SDS011;6006;49.696;8.662;2023-08-20T06:48:38;4.88;;;4.20;;
11893;SDS011;6006;49.696;8.662;2023-08-20T06:51:08;5.05;;;4.35;;
11893;SDS011;6006;49.696;8.662;2023-08-20T06:53:37;9.07;;;5.15;;
11893;SDS011;6006;49.696;8.662;2023-08-20T06:56:07;5.13;;;4.53;;
11893;SDS011;6006;49.696;8.662;2023-08-20T06:58:34;7.72;;;4.43;;
11893;SDS011;6006;49.696;8.662;2023-08-20T07:01:01;4.55;;;4.13;;
11893;SDS011;6006;49.696;8.662;2023-08-20T07:03:33;5.43;;;4.75;;
11893;SDS011;6006;49.696;8.662;2023-08-20T07:06:00;5.95;;;4.65;;
11893;SDS011;6006;49.696;8.662;2023-08-20T07:08:27;5.15;;;4.50;;
11893;SDS011;6006;49.696;8.662;2023-08-20T07:10:54;6.80;;;4.82;;
11893;SDS011;6006;49.696;8.662;2023-08-20T07:13:23;5.47;;;4.97;;
11893;SDS011;6006;49.696;8.662;2023-08-20T07:15:50;5.32;;;4.45;;
11893;SDS011;6006;49.696;8.662;2023-08-20T07:18:17;5.88;;;4.57;;
11893;SDS011;6006;49.696;8.662;2023-08-20T07:20:44;4.90;;;4.43;;
11893;SDS011;6006;49.696;8.662;2023-08-20T07:23:11;6.72;;;4.60;;
11893;SDS011;6006;49.696;8.662;2023-08-20T07:25:39;4.20;;;3.88;;
11893;SDS011;6006;49.696;8.662;2023-08-20T07:28:07;5.45;;;4.95;;
11893;SDS011;6006;49.696;8.662;2023-08-20T07:30:36;7.38;;;4.57;;
11893;SDS011;6006;49.696;8.662;2023-08-20T07:33:03;6.45;;;5.05;;
11893;SDS011;6006;49.696;8.662;2023-08-20T07:35:30;5.75;;;4.80;;
11893;SDS011;6006;49.696;8.662;2023-08-20T07:37:57;4.47;;;4.07;;
11893;SDS011;6006;49.696;8.662;2023-08-20T07:40:24;5.00;;;4.53;;
11893;SDS011;6006;49.696;8.662;2023-08-20T07:42:51;5.40;;;4.25;;
11893;SDS011;6006;49.696;8.662;2023-08-20T07:45:18;4.93;;;4.43;;
11893;SDS011;6006;49.696;8.662;2023-08-20T07:47:46;7.03;;;4.75;;
11893;SDS011;6006;49.696;8.662;2023-08-20T07:50:13;4.63;;;4.22;;
11893;SDS011;6006;49.696;8.662;2023-08-20T07:52:40;5.13;;;4.38;;
11893;SDS011;6006;49.696;8.662;2023-08-20T07:55:07;6.28;;;4.20;;
11893;SDS011;6006;49.696;8.662;2023-08-20T07:57:34;4.43;;;4.03;;
11893;SDS011;6006;49.696;8.662;2023-08-20T08:00:01;5.45;;;4.47;;
11893;SDS011;6006;49.696;8.662;2023-08-20T08:02:29;5.35;;;4.28;;
11893;SDS011;6006;49.696;8.662;2023-08-20T08:04:57;6.55;;;4.10;;
11893;SDS011;6006;49.696;8.662;2023-08-20T08:07:24;4.40;;;3.95;;
11893;SDS011;6006;49.696;8.662;2023-08-20T08:09:52;4.28;;;3.88;;
11893;SDS011;6006;49.696;8.662;2023-08-20T08:12:18;5.68;;;3.97;;
11893;SDS011;6006;49.696;8.662;2023-08-20T08:14:45;4.72;;;4.20;;
11893;SDS011;6006;49.696;8.662;2023-08-20T08:17:13;4.40;;;4.00;;
11893;SDS011;6006;49.696;8.662;2023-08-20T08:19:40;4.40;;;4.00;;
11893;SDS011;6006;49.696;8.662;2023-08-20T08:22:08;3.67;;;3.28;;
11893;SDS011;6006;49.696;8.662;2023-08-20T08:24:35;6.15;;;4.10;;
11893;SDS011;6006;49.696;8.662;2023-08-20T08:27:02;4.78;;;3.92;;
11893;SDS011;6006;49.696;8.662;2023-08-20T08:29:29;4.82;;;4.32;;
11893;SDS011;6006;49.696;8.662;2023-08-20T08:31:56;5.93;;;3.90;;
11893;SDS011;6006;49.696;8.662;2023-08-20T08:34:23;4.18;;;3.80;;
11893;SDS011;6006;49.696;8.662;2023-08-20T08:36:50;4.45;;;4.15;;
11893;SDS011;6006;49.696;8.662;2023-08-20T08:39:18;4.68;;;4.18;;
11893;SDS011;6006;49.696;8.662;2023-08-20T08:41:45;3.90;;;3.65;;
11893;SDS011;6006;49.696;8.662;2023-08-20T08:44:17;4.70;;;4.30;;
11893;SDS011;6006;49.696;8.662;2023-08-20T08:46:44;5.07;;;4.40;;
11893;SDS011;6006;49.696;8.662;2023-08-20T08:49:12;4.90;;;4.20;;
11893;SDS011;6006;49.696;8.662;2023-08-20T08:51:39;4.47;;;4.13;;
11893;SDS011;6006;49.696;8.662;2023-08-20T08:54:10;4.43;;;4.03;;
11893;SDS011;6006;49.696;8.662;2023-08-20T08:56:41;4.35;;;3.85;;
11893;SDS011;6006;49.696;8.662;2023-08-20T08:59:07;4.60;;;4.20;;
11893;SDS011;6006;49.696;8.662;2023-08-20T09:01:37;4.95;;;4.22;;
11893;SDS011;6006;49.696;8.662;2023-08-20T09:04:05;4.38;;;4.07;;
11893;SDS011;6006;49.696;8.662;2023-08-20T09:06:44;6.75;;;4.57;;
11893;SDS011;6006;49.696;8.662;2023-08-20T09:09:12;9.52;;;4.47;;
11893;SDS011;6006;49.696;8.662;2023-08-20T09:11:41;8.65;;;4.80;;
11893;SDS011;6006;49.696;8.662;2023-08-20T09:14:07;4.55;;;4.13;;
11893;SDS011;6006;49.696;8.662;2023-08-20T09:16:46;4.43;;;4.03;;
11893;SDS011;6006;49.696;8.662;2023-08-20T09:19:13;5.20;;;3.80;;
11893;SDS011;6006;49.696;8.662;2023-08-20T09:21:40;3.83;;;3.53;;
11893;SDS011;6006;49.696;8.662;2023-08-20T09:24:13;3.95;;;3.55;;
11893;SDS011;6006;49.696;8.662;2023-08-20T09:26:44;3.97;;;3.72;;
11893;SDS011;6006;49.696;8.662;2023-08-20T09:29:11;4.57;;;4.18;;
11893;SDS011;6006;49.696;8.662;2023-08-20T09:31:39;4.00;;;3.70;;
11893;SDS011;6006;49.696;8.662;2023-08-20T09:34:11;4.75;;;3.60;;
11893;SDS011;6006;49.696;8.662;2023-08-20T09:36:39;6.90;;;3.72;;
11893;SDS011;6006;49.696;8.662;2023-08-20T09:39:05;4.00;;;3.70;;
11893;SDS011;6006;49.696;8.662;2023-08-20T09:41:32;3.40;;;3.20;;
11893;SDS011;6006;49.696;8.662;2023-08-20T09:44:03;3.03;;;2.70;;
11893;SDS011;6006;49.696;8.662;2023-08-20T09:46:32;2.63;;;2.42;;
11893;SDS011;6006;49.696;8.662;2023-08-20T09:49:01;4.65;;;3.33;;
11893;SDS011;6006;49.696;8.662;2023-08-20T09:51:30;4.10;;;3.67;;
11893;SDS011;6006;49.696;8.662;2023-08-20T09:54:02;4.13;;;3.67;;
11893;SDS011;6006;49.696;8.662;2023-08-20T09:56:38;4.82;;;3.13;;
11893;SDS011;6006;49.696;8.662;2023-08-20T09:59:07;5.13;;;4.80;;
11893;SDS011;6006;49.696;8.662;2023-08-20T10:01:36;3.63;;;3.20;;
11893;SDS011;6006;49.696;8.662;2023-08-20T10:04:03;3.35;;;3.10;;
11893;SDS011;6006;49.696;8.662;2023-08-20T10:06:31;3.08;;;2.80;;
11893;SDS011;6006;49.696;8.662;2023-08-20T10:09:00;2.88;;;2.67;;
11893;SDS011;6006;49.696;8.662;2023-08-20T10:11:27;4.53;;;3.45;;
11893;SDS011;6006;49.696;8.662;2023-08-20T10:13:55;4.28;;;3.60;;
11893;SDS011;6006;49.696;8.662;2023-08-20T10:16:23;3.53;;;2.83;;
11893;SDS011;6006;49.696;8.662;2023-08-20T10:18:53;2.67;;;2.50;;
11893;SDS011;6006;49.696;8.662;2023-08-20T10:21:24;2.85;;;2.63;;
11893;SDS011;6006;49.696;8.662;2023-08-20T10:23:54;3.55;;;3.05;;
11893;SDS011;6006;49.696;8.662;2023-08-20T10:26:21;3.35;;;3.08;;
11893;SDS011;6006;49.696;8.662;2023-08-20T10:28:49;3.47;;;2.92;;
11893;SDS011;6006;49.696;8.662;2023-08-20T10:31:16;3.10;;;2.90;;
11893;SDS011;6006;49.696;8.662;2023-08-20T10:33:50;3.58;;;3.28;;
11893;SDS011;6006;49.696;8.662;2023-08-20T10:36:21;3.10;;;2.80;;
11893;SDS011;6006;49.696;8.662;2023-08-20T10:38:53;4.47;;;3.15;;
11893;SDS011;6006;49.696;8.662;2023-08-20T10:41:24;3.90;;;2.78;;
11893;SDS011;6006;49.696;8.662;2023-08-20T10:43:51;2.83;;;2.63;;
11893;SDS011;6006;49.696;8.662;2023-08-20T10:46:19;2.95;;;2.75;;
11893;SDS011;6006;49.696;8.662;2023-08-20T10:48:47;3.60;;;3.05;;
11893;SDS011;6006;49.696;8.662;2023-08-20T10:51:17;3.05;;;2.80;;
11893;SDS011;6006;49.696;8.662;2023-08-20T10:53:48;2.95;;;2.60;;
11893;SDS011;6006;49.696;8.662;2023-08-20T10:56:37;3.17;;;2.35;;
11893;SDS011;6006;49.696;8.662;2023-08-20T10:59:05;5.70;;;2.75;;
11893;SDS011;6006;49.696;8.662;2023-08-20T11:01:34;2.90;;;2.70;;
11893;SDS011;6006;49.696;8.662;2023-08-20T11:04:02;4.65;;;2.30;;
11893;SDS011;6006;49.696;8.662;2023-08-20T11:06:32;3.08;;;2.78;;
11893;SDS011;6006;49.696;8.662;2023-08-20T11:08:59;2.97;;;2.70;;
11893;SDS011;6006;49.696;8.662;2023-08-20T11:11:28;3.25;;;2.45;;
11893;SDS011;6006;49.696;8.662;2023-08-20T11:13:56;3.13;;;2.65;;
11893;SDS011;6006;49.696;8.662;2023-08-20T11:16:23;3.17;;;2.22;;
11893;SDS011;6006;49.696;8.662;2023-08-20T11:18:51;2.55;;;2.35;;
11893;SDS011;6006;49.696;8.662;2023-08-20T11:21:20;2.40;;;2.30;;
11893;SDS011;6006;49.696;8.662;2023-08-20T11:23:47;3.35;;;3.05;;
11893;SDS011;6006;49.696;8.662;2023-08-20T11:26:14;2.42;;;2.30;;
11893;SDS011;6006;49.696;8.662;2023-08-20T11:28:44;3.22;;;3.03;;
11893;SDS011;6006;49.696;8.662;2023-08-20T11:31:12;4.40;;;2.72;;
11893;SDS011;6006;49.696;8.662;2023-08-20T11:33:39;3.03;;;2.65;;
11893;SDS011;6006;49.696;8.662;2023-08-20T11:36:06;3.70;;;2.90;;
11893;SDS011;6006;49.696;8.662;2023-08-20T11:38:35;3.28;;;2.17;;
11893;SDS011;6006;49.696;8.662;2023-08-20T11:41:02;3.03;;;2.65;;
11893;SDS011;6006;49.696;8.662;2023-08-20T11:43:29;2.70;;;2.45;;
11893;SDS011;6006;49.696;8.662;2023-08-20T11:45:55;2.45;;;2.35;;
11893;SDS011;6006;49.696;8.662;2023-08-20T11:48:22;2.55;;;2.35;;
11893;SDS011;6006;49.696;8.662;2023-08-20T11:50:49;2.75;;;2.55;;
11893;SDS011;6006;49.696;8.662;2023-08-20T11:53:20;3.35;;;2.70;;
11893;SDS011;6006;49.696;8.662;2023-08-20T11:55:49;2.78;;;2.42;;
11893;SDS011;6006;49.696;8.662;2023-08-20T11:58:18;2.55;;;2.05;;
11893;SDS011;6006;49.696;8.662;2023-08-20T12:00:48;2.92;;;1.80;;
11893;SDS011;6006;49.696;8.662;2023-08-20T12:03:17;3.03;;;2.00;;
11893;SDS011;6006;49.696;8.662;2023-08-20T12:05:45;1.98;;;1.83;;
11893;SDS011;6006;49.696;8.662;2023-08-20T12:08:14;1.73;;;1.55;;
11893;SDS011;6006;49.696;8.662;2023-08-20T12:10:43;1.77;;;1.65;;
11893;SDS011;6006;49.696;8.662;2023-08-20T12:13:11;1.75;;;1.65;;
11893;SDS011;6006;49.696;8.662;2023-08-20T12:15:38;3.80;;;1.85;;
11893;SDS011;6006;49.696;8.662;2023-08-20T12:18:05;2.92;;;1.98;;
11893;SDS011;6006;49.696;8.662;2023-08-20T12:20:34;1.88;;;1.67;;
11893;SDS011;6006;49.696;8.662;2023-08-20T12:23:02;2.20;;;2.00;;
11893;SDS011;6006;49.696;8.662;2023-08-20T12:25:30;8.07;;;2.25;;
11893;SDS011;6006;49.696;8.662;2023-08-20T12:27:59;3.03;;;1.92;;
11893;SDS011;6006;49.696;8.662;2023-08-20T12:30:28;3.55;;;1.88;;
11893;SDS011;6006;49.696;8.662;2023-08-20T12:32:55;2.03;;;1.92;;
11893;SDS011;6006;49.696;8.662;2023-08-20T12:35:22;1.90;;;1.80;;
11893;SDS011;6006;49.696;8.662;2023-08-20T12:37:49;2.10;;;1.50;;
11893;SDS011;6006;49.696;8.662;2023-08-20T12:40:15;2.55;;;1.67;;
11893;SDS011;6006;49.696;8.662;2023-08-20T12:42:43;1.92;;;1.83;;
11893;SDS011;6006;49.696;8.662;2023-08-20T12:45:10;3.22;;;1.98;;
11893;SDS011;6006;49.696;8.662;2023-08-20T12:47:40;2.45;;;2.15;;
11893;SDS011;6006;49.696;8.662;2023-08-20T12:50:07;2.20;;;2.03;;
11893;SDS011;6006;49.696;8.662;2023-08-20T12:52:35;2.22;;;1.90;;
11893;SDS011;6006;49.696;8.662;2023-08-20T12:55:02;2.00;;;1.90;;
11893;SDS011;6006;49.696;8.662;2023-08-20T12:57:29;2.67;;;1.75;;
11893;SDS011;6006;49.696;8.662;2023-08-20T12:59:56;2.53;;;1.88;;
11893;SDS011;6006;49.696;8.662;2023-08-20T13:02:24;1.77;;;1.67;;
11893;SDS011;6006;49.696;8.662;2023-08-20T13:04:53;2.88;;;2.00;;
11893;SDS011;6006;49.696;8.662;2023-08-20T13:07:21;2.45;;;2.00;;
11893;SDS011;6006;49.696;8.662;2023-08-20T13:09:48;3.83;;;2.10;;
11893;SDS011;6006;49.696;8.662;2023-08-20T13:12:15;2.30;;;2.03;;
11893;SDS011;6006;49.696;8.662;2023-08-20T13:14:47;4.25;;;2.00;;
11893;SDS011;6006;49.696;8.662;2023-08-20T13:17:15;2.38;;;2.17;;
11893;SDS011;6006;49.696;8.662;2023-08-20T13:19:42;2.15;;;1.83;;
11893;SDS011;6006;49.696;8.662;2023-08-20T13:22:10;6.05;;;2.50;;
11893;SDS011;6006;49.696;8.662;2023-08-20T13:24:37;5.35;;;2.28;;
11893;SDS011;6006;49.696;8.662;2023-08-20T13:27:04;2.90;;;2.47;;
11893;SDS011;6006;49.696;8.662;2023-08-20T13:29:31;2.80;;;2.60;;
11893;SDS011;6006;49.696;8.662;2023-08-20T13:31:58;3.22;;;2.50;;
11893;SDS011;6006;49.696;8.662;2023-08-20T13:34:25;3.00;;;2.80;;
11893;SDS011;6006;49.696;8.662;2023-08-20T13:36:52;2.60;;;2.35;;
11893;SDS011;6006;49.696;8.662;2023-08-20T13:39:20;3.35;;;2.85;;
11893;SDS011;6006;49.696;8.662;2023-08-20T13:41:48;2.67;;;2.47;;
11893;SDS011;6006;49.696;8.662;2023-08-20T13:44:16;3.53;;;3.17;;
11893;SDS011;6006;49.696;8.662;2023-08-20T13:46:43;2.80;;;2.60;;
11893;SDS011;6006;49.696;8.662;2023-08-20T13:49:10;3.38;;;3.08;;
11893;SDS011;6006;49.696;8.662;2023-08-20T13:51:37;3.80;;;3.22;;
11893;SDS011;6006;49.696;8.662;2023-08-20T13:54:04;4.40;;;4.00;;
11893;SDS011;6006;49.696;8.662;2023-08-20T13:56:32;3.55;;;3.22;;
11893;SDS011;6006;49.696;8.662;2023-08-20T13:58:59;2.60;;;2.40;;
11893;SDS011;6006;49.696;8.662;2023-08-20T14:01:26;2.47;;;2.03;;
11893;SDS011;6006;49.696;8.662;2023-08-20T14:03:53;2.47;;;2.28;;
11893;SDS011;6006;49.696;8.662;2023-08-20T14:06:20;2.92;;;2.72;;
11893;SDS011;6006;49.696;8.662;2023-08-20T14:08:47;3.03;;;2.83;;
11893;SDS011;6006;49.696;8.662;2023-08-20T14:11:14;3.78;;;2.60;;
11893;SDS011;6006;49.696;8.662;2023-08-20T14:13:42;2.92;;;2.67;;
11893;SDS011;6006;49.696;8.662;2023-08-20T14:16:10;3.00;;;2.80;;
11893;SDS011;6006;49.696;8.662;2023-08-20T14:18:37;3.35;;;2.80;;
11893;SDS011;6006;49.696;8.662;2023-08-20T14:21:04;2.60;;;2.40;;
11893;SDS011;6006;49.696;8.662;2023-08-20T14:23:31;3.83;;;2.17;;
11893;SDS011;6006;49.696;8.662;2023-08-20T14:25:58;3.03;;;2.75;;
11893;SDS011;6006;49.696;8.662;2023-08-20T14:28:25;2.83;;;2.60;;
11893;SDS011;6006;49.696;8.662;2023-08-20T14:30:53;2.78;;;2.58;;
11893;SDS011;6006;49.696;8.662;2023-08-20T14:33:20;3.30;;;2.40;;
11893;SDS011;6006;49.696;8.662;2023-08-20T14:35:47;3.08;;;2.88;;
11893;SDS011;6006;49.696;8.662;2023-08-20T14:38:14;3.22;;;2.92;;
11893;SDS011;6006;49.696;8.662;2023-08-20T14:40:41;3.97;;;2.70;;
11893;SDS011;6006;49.696;8.662;2023-08-20T14:43:08;3.10;;;2.90;;
11893;SDS011;6006;49.696;8.662;2023-08-20T14:45:35;3.10;;;2.95;;
11893;SDS011;6006;49.696;8.662;2023-08-20T14:48:03;3.28;;;2.97;;
11893;SDS011;6006;49.696;8.662;2023-08-20T14:50:31;3.00;;;2.80;;
11893;SDS011;6006;49.696;8.662;2023-08-20T14:52:58;3.13;;;2.80;;
11893;SDS011;6006;49.696;8.662;2023-08-20T14:55:25;4.63;;;2.58;;
11893;SDS011;6006;49.696;8.662;2023-08-20T14:57:52;3.53;;;2.90;;
11893;SDS011;6006;49.696;8.662;2023-08-20T15:00:19;3.85;;;3.00;;
11893;SDS011;6006;49.696;8.662;2023-08-20T15:02:47;3.35;;;2.55;;
11893;SDS011;6006;49.696;8.662;2023-08-20T15:05:16;3.25;;;2.72;;
11893;SDS011;6006;49.696;8.662;2023-08-20T15:07:43;2.40;;;2.20;;